createdAt,value
2024-01-29T00:01:31.465Z,5.27
2024-01-29T00:04:33.621Z,5.37
2024-01-29T00:07:35.502Z,4.97
2024-01-29T00:10:37.473Z,5.37
2024-01-29T00:13:39.444Z,4.97
2024-01-29T00:16:41.489Z,5.10
2024-01-29T00:19:43.446Z,4.63
2024-01-29T00:22:45.351Z,5.20
2024-01-29T00:25:47.833Z,4.90
2024-01-29T00:28:49.727Z,4.43
2024-01-29T00:31:51.582Z,4.37
2024-01-29T00:34:54.908Z,4.27
2024-01-29T00:37:56.808Z,4.30
2024-01-29T00:40:59.137Z,4.43
2024-01-29T00:44:00.990Z,4.17
2024-01-29T00:47:03.500Z,4.47
2024-01-29T00:50:05.933Z,4.33
2024-01-29T00:53:07.800Z,4.67
2024-01-29T00:56:09.715Z,4.50
2024-01-29T00:59:11.601Z,4.80
2024-01-29T01:02:13.567Z,4.87
2024-01-29T01:05:15.532Z,4.63
2024-01-29T01:08:17.787Z,4.27
2024-01-29T01:11:19.765Z,4.97
2024-01-29T01:14:22.233Z,4.20
2024-01-29T01:17:24.480Z,4.40
2024-01-29T01:20:26.335Z,4.80
2024-01-29T01:23:28.163Z,5.20
2024-01-29T01:26:30.049Z,4.83
2024-01-29T01:29:31.898Z,4.90
2024-01-29T01:32:33.986Z,4.63
2024-01-29T01:35:35.920Z,4.57
2024-01-29T01:38:37.756Z,4.63
2024-01-29T01:41:39.589Z,4.17
2024-01-29T01:44:41.638Z,4.23
2024-01-29T01:47:43.855Z,5.07
2024-01-29T01:50:45.649Z,4.37
2024-01-29T01:53:49.489Z,4.67
2024-01-29T01:56:51.901Z,4.50
2024-01-29T01:59:53.841Z,4.03
2024-01-29T02:02:56.078Z,4.03
2024-01-29T02:05:58.104Z,3.90
2024-01-29T02:09:01.111Z,4.20
2024-01-29T02:12:03.076Z,3.87
2024-01-29T02:15:05.704Z,4.07
2024-01-29T02:18:07.885Z,4.83
2024-01-29T02:21:09.944Z,3.90
2024-01-29T02:24:11.784Z,3.90
2024-01-29T02:27:13.588Z,4.10
2024-01-29T02:30:15.511Z,4.30
2024-01-29T02:33:17.484Z,3.97
2024-01-29T02:36:19.524Z,4.17
2024-01-29T02:39:21.363Z,3.80
2024-01-29T02:42:23.483Z,4.27
2024-01-29T02:45:25.263Z,3.97
2024-01-29T02:48:27.380Z,4.00
2024-01-29T02:51:29.310Z,4.20
2024-01-29T02:54:31.332Z,3.80
2024-01-29T02:57:33.235Z,4.10
2024-01-29T03:00:35.260Z,4.23
2024-01-29T03:03:37.408Z,3.97
2024-01-29T03:06:39.425Z,3.90
2024-01-29T03:09:41.352Z,4.13
2024-01-29T03:12:43.244Z,4.10
2024-01-29T03:15:46.457Z,4.33
2024-01-29T03:18:48.380Z,4.27
2024-01-29T03:21:50.251Z,4.53
2024-01-29T03:24:52.859Z,4.33
2024-01-29T03:27:54.980Z,4.13
2024-01-29T03:30:56.829Z,4.40
2024-01-29T03:33:58.957Z,4.40
2024-01-29T03:37:01.056Z,4.73
2024-01-29T03:40:06.651Z,4.57
2024-01-29T03:43:08.585Z,5.00
2024-01-29T03:46:10.532Z,4.70
2024-01-29T03:49:12.502Z,3.87
2024-01-29T03:52:14.360Z,4.60
2024-01-29T03:55:16.381Z,4.50
2024-01-29T03:58:18.570Z,3.70
2024-01-29T04:01:29.020Z,4.07
2024-01-29T04:04:31.226Z,4.03
2024-01-29T04:07:33.474Z,3.73
2024-01-29T04:10:35.645Z,3.67
2024-01-29T04:13:37.655Z,4.13
2024-01-29T04:16:39.985Z,4.20
2024-01-29T04:19:41.813Z,3.60
2024-01-29T04:22:43.784Z,4.33
2024-01-29T04:25:46.000Z,3.73
2024-01-29T04:28:47.952Z,3.83
2024-01-29T04:31:49.848Z,3.77
2024-01-29T04:34:51.953Z,3.83
2024-01-29T04:37:55.064Z,4.07
2024-01-29T04:40:56.902Z,3.60
2024-01-29T04:43:58.726Z,3.93
2024-01-29T04:47:00.892Z,4.03
2024-01-29T04:50:03.337Z,3.93
2024-01-29T04:53:05.169Z,4.53
2024-01-29T04:56:08.002Z,3.77
2024-01-29T04:59:10.525Z,3.80
2024-01-29T05:02:12.420Z,4.37
2024-01-29T05:05:14.420Z,4.57
2024-01-29T05:08:16.986Z,4.10
2024-01-29T05:11:18.949Z,4.30
2024-01-29T05:14:20.795Z,3.87
2024-01-29T05:17:22.945Z,4.30
2024-01-29T05:20:25.360Z,4.67
2024-01-29T05:23:27.148Z,4.70
2024-01-29T05:26:28.959Z,4.37
2024-01-29T05:29:32.613Z,4.03
2024-01-29T05:32:35.199Z,4.43
2024-01-29T05:35:38.230Z,4.53
2024-01-29T05:38:40.014Z,4.77
2024-01-29T05:41:41.959Z,4.37
2024-01-29T05:44:43.801Z,4.37
2024-01-29T05:47:45.680Z,4.43
2024-01-29T05:50:48.252Z,4.33
2024-01-29T05:53:51.060Z,4.57
2024-01-29T05:56:53.215Z,5.03
2024-01-29T05:59:55.175Z,4.80
2024-01-29T06:02:57.526Z,4.70
2024-01-29T06:05:59.482Z,4.43
2024-01-29T06:09:01.466Z,4.50
2024-01-29T06:12:03.714Z,5.00
2024-01-29T06:15:06.612Z,4.87
2024-01-29T06:18:08.731Z,4.70
2024-01-29T06:21:10.574Z,4.50
2024-01-29T06:24:12.813Z,4.57
2024-01-29T06:27:14.875Z,3.97
2024-01-29T06:30:16.921Z,4.80
2024-01-29T06:33:18.787Z,5.83
2024-01-29T06:36:22.011Z,5.00
2024-01-29T06:39:25.600Z,5.07
2024-01-29T06:42:27.533Z,5.87
2024-01-29T06:45:35.115Z,4.90
2024-01-29T06:48:38.789Z,4.83
2024-01-29T06:51:40.631Z,5.00
2024-01-29T06:54:42.510Z,5.60
2024-01-29T06:57:44.957Z,6.30
2024-01-29T07:00:47.432Z,7.87
2024-01-29T07:03:49.463Z,5.77
2024-01-29T07:06:51.458Z,5.77
2024-01-29T07:09:56.112Z,5.30
2024-01-29T07:12:58.250Z,6.73
2024-01-29T07:16:00.719Z,9.63
2024-01-29T07:19:02.935Z,13.30
2024-01-29T07:22:10.456Z,15.60
2024-01-29T07:25:12.570Z,11.60
2024-01-29T07:28:14.545Z,13.63
2024-01-29T07:31:18.552Z,13.03
2024-01-29T07:34:20.713Z,11.20
2024-01-29T07:37:22.667Z,11.83
2024-01-29T07:40:24.484Z,8.13
2024-01-29T07:43:26.306Z,8.33
2024-01-29T07:46:28.357Z,8.97
2024-01-29T07:49:33.209Z,6.97
2024-01-29T07:52:35.218Z,7.00
2024-01-29T07:55:37.220Z,6.63
2024-01-29T07:58:39.024Z,6.77
2024-01-29T08:01:41.219Z,6.70
2024-01-29T08:04:43.284Z,5.97
2024-01-29T08:07:45.149Z,5.63
2024-01-29T08:10:49.261Z,5.90
2024-01-29T08:13:51.619Z,5.37
2024-01-29T08:16:53.599Z,5.80
2024-01-29T08:19:55.633Z,6.33
2024-01-29T08:22:57.605Z,5.50
2024-01-29T08:25:59.445Z,5.40
2024-01-29T08:29:01.651Z,6.17
2024-01-29T08:32:05.355Z,6.13
2024-01-29T08:35:07.629Z,5.20
2024-01-29T08:38:12.147Z,5.83
2024-01-29T08:41:14.630Z,4.97
2024-01-29T08:44:16.531Z,5.20
2024-01-29T08:47:18.499Z,5.97
2024-01-29T08:50:20.338Z,5.53
2024-01-29T08:53:22.177Z,5.93
2024-01-29T08:56:24.032Z,6.90
2024-01-29T08:59:31.058Z,6.73
2024-01-29T09:02:33.423Z,6.00
2024-01-29T09:05:35.511Z,5.97
2024-01-29T09:08:37.612Z,5.63
2024-01-29T09:11:39.619Z,5.10
2024-01-29T09:14:41.570Z,5.40
2024-01-29T09:17:46.459Z,5.10
2024-01-29T09:20:49.393Z,5.50
2024-01-29T09:23:51.572Z,5.10
2024-01-29T09:26:53.632Z,5.87
2024-01-29T09:29:55.518Z,5.77
2024-01-29T09:33:03.475Z,5.83
2024-01-29T09:36:12.837Z,5.17
2024-01-29T09:39:14.829Z,5.23
2024-01-29T09:42:19.540Z,6.17
2024-01-29T09:45:27.391Z,5.03
2024-01-29T09:48:33.621Z,5.17
2024-01-29T09:51:37.130Z,5.20
2024-01-29T09:54:41.910Z,5.63
2024-01-29T09:57:44.882Z,5.57
2024-01-29T10:00:46.754Z,5.60
2024-01-29T10:03:48.816Z,5.80
2024-01-29T10:06:51.007Z,5.83
2024-01-29T10:09:53.442Z,5.00
2024-01-29T10:13:08.857Z,5.93
2024-01-29T10:16:10.739Z,4.97
2024-01-29T10:19:14.283Z,5.40
2024-01-29T10:22:16.505Z,4.77
2024-01-29T10:25:19.138Z,5.00
2024-01-29T10:28:21.669Z,5.40
2024-01-29T10:31:23.472Z,5.20
2024-01-29T10:34:25.557Z,4.37
2024-01-29T10:37:28.766Z,4.60
2024-01-29T10:40:35.432Z,4.23
2024-01-29T10:43:39.594Z,4.43
2024-01-29T10:46:43.102Z,4.80
2024-01-29T10:49:46.388Z,4.73
2024-01-29T10:52:49.420Z,4.53
2024-01-29T10:55:53.238Z,4.60
2024-01-29T10:59:02.420Z,4.90
2024-01-29T11:02:07.044Z,4.80
2024-01-29T11:05:11.142Z,4.70
2024-01-29T11:08:21.407Z,4.30
2024-01-29T11:11:24.698Z,4.10
2024-01-29T11:14:26.657Z,3.93
2024-01-29T11:17:28.911Z,4.33
2024-01-29T11:20:33.323Z,4.27
2024-01-29T11:23:43.634Z,4.10
2024-01-29T11:26:45.799Z,3.93
2024-01-29T11:29:48.249Z,4.20
2024-01-29T11:32:51.776Z,3.90
2024-01-29T11:35:57.842Z,4.20
2024-01-29T11:39:10.342Z,4.00
2024-01-29T11:42:12.771Z,3.73
2024-01-29T11:45:15.716Z,4.00
2024-01-29T11:48:20.122Z,4.10
2024-01-29T11:51:22.330Z,4.40
2024-01-29T11:54:25.537Z,3.60
2024-01-29T11:57:30.802Z,4.07
2024-01-29T12:00:32.634Z,3.77
2024-01-29T12:03:36.728Z,4.33
2024-01-29T12:06:39.992Z,4.27
2024-01-29T12:09:41.959Z,4.77
2024-01-29T12:12:44.196Z,3.80
2024-01-29T12:15:47.177Z,5.07
2024-01-29T12:18:50.976Z,4.00
2024-01-29T12:21:53.012Z,4.67
2024-01-29T12:24:57.931Z,4.40
2024-01-29T12:28:12.428Z,4.47
2024-01-29T12:31:15.809Z,4.23
2024-01-29T12:34:24.727Z,3.87
2024-01-29T12:37:27.992Z,4.80
2024-01-29T12:40:29.936Z,4.23
2024-01-29T12:43:31.809Z,4.57
2024-01-29T12:46:33.674Z,4.37
2024-01-29T12:49:35.614Z,4.20
2024-01-29T12:52:37.671Z,4.33
2024-01-29T12:55:43.353Z,4.47
2024-01-29T12:58:45.111Z,4.43
2024-01-29T13:01:47.244Z,4.47
2024-01-29T13:04:49.469Z,4.40
2024-01-29T13:07:51.330Z,4.07
2024-01-29T13:10:55.066Z,4.20
2024-01-29T13:13:57.003Z,3.83
2024-01-29T13:17:01.362Z,4.27
2024-01-29T13:20:07.333Z,4.73
2024-01-29T13:23:10.809Z,3.47
2024-01-29T13:26:12.606Z,4.07
2024-01-29T13:29:14.496Z,4.27
2024-01-29T13:32:16.409Z,4.10
2024-01-29T13:35:18.420Z,3.73
2024-01-29T13:38:21.931Z,4.53
2024-01-29T13:41:24.816Z,5.30
2024-01-29T13:44:27.045Z,4.67
2024-01-29T13:47:30.164Z,4.30
2024-01-29T13:50:32.466Z,4.50
2024-01-29T13:53:34.320Z,4.20
2024-01-29T13:56:36.218Z,4.50
2024-01-29T13:59:38.040Z,4.70
2024-01-29T14:02:39.884Z,4.00
2024-01-29T14:05:42.700Z,4.23
2024-01-29T14:08:44.660Z,3.83
2024-01-29T14:11:46.554Z,4.10
2024-01-29T14:14:48.606Z,4.47
2024-01-29T14:17:50.828Z,4.03
2024-01-29T14:20:54.205Z,4.33
2024-01-29T14:23:56.005Z,4.80
2024-01-29T14:26:58.344Z,4.40
2024-01-29T14:30:00.874Z,5.03
2024-01-29T14:33:03.202Z,5.23
2024-01-29T14:36:05.356Z,4.77
2024-01-29T14:39:07.176Z,5.97
2024-01-29T14:42:09.057Z,6.00
2024-01-29T14:45:11.660Z,6.63
2024-01-29T14:48:13.715Z,6.20
2024-01-29T14:51:15.886Z,6.00
2024-01-29T14:54:17.841Z,5.90
2024-01-29T14:57:19.803Z,5.40
2024-01-29T15:00:22.213Z,5.27
2024-01-29T15:03:24.203Z,4.90
2024-01-29T15:06:26.082Z,6.30
2024-01-29T15:09:28.127Z,5.90
2024-01-29T15:12:30.309Z,5.83
2024-01-29T15:15:33.978Z,7.90
2024-01-29T15:18:36.826Z,7.17
2024-01-29T15:21:38.789Z,6.60
2024-01-29T15:24:40.980Z,6.30
2024-01-29T15:27:44.741Z,6.47
2024-01-29T15:30:46.711Z,8.50
2024-01-29T15:33:52.620Z,8.83
2024-01-29T15:36:55.076Z,7.10
2024-01-29T15:39:57.093Z,8.43
2024-01-29T15:43:00.420Z,7.77
2024-01-29T15:46:02.355Z,6.63
2024-01-29T15:49:04.248Z,6.47
2024-01-29T15:52:07.016Z,6.43
2024-01-29T15:55:09.660Z,6.53
2024-01-29T15:58:11.641Z,6.57
2024-01-29T16:01:14.162Z,7.60
2024-01-29T16:04:16.246Z,7.47
2024-01-29T16:07:19.032Z,6.87
2024-01-29T16:10:20.996Z,7.07
2024-01-29T16:13:23.132Z,8.77
2024-01-29T16:16:25.079Z,6.90
2024-01-29T16:19:27.496Z,14.20
2024-01-29T16:22:29.436Z,16.03
2024-01-29T16:25:31.788Z,12.40
2024-01-29T16:28:33.667Z,9.27
2024-01-29T16:31:42.028Z,9.73
2024-01-29T16:34:44.311Z,9.60
2024-01-29T16:37:46.208Z,10.73
2024-01-29T16:40:48.039Z,10.03
2024-01-29T16:43:50.591Z,9.80
2024-01-29T16:46:52.521Z,9.67
2024-01-29T16:49:54.533Z,11.13
2024-01-29T16:52:56.640Z,10.23
2024-01-29T16:55:58.516Z,9.27
2024-01-29T16:59:02.315Z,9.63
2024-01-29T17:02:05.481Z,8.73
2024-01-29T17:05:09.900Z,8.97
2024-01-29T17:08:15.424Z,8.77
2024-01-29T17:11:18.380Z,9.43
2024-01-29T17:14:20.438Z,9.37
2024-01-29T17:17:22.363Z,10.97
2024-01-29T17:20:24.240Z,8.87
2024-01-29T17:23:27.441Z,9.23
2024-01-29T17:26:29.270Z,8.47
2024-01-29T17:29:31.818Z,8.00
2024-01-29T17:32:33.909Z,7.03
2024-01-29T17:35:35.761Z,6.60
2024-01-29T17:38:37.986Z,6.43
2024-01-29T17:41:40.084Z,6.50
2024-01-29T17:44:43.097Z,6.53
2024-01-29T17:47:45.629Z,6.47
2024-01-29T17:50:47.576Z,6.40
2024-01-29T17:53:50.919Z,6.77
2024-01-29T17:56:55.078Z,6.87
2024-01-29T17:59:57.082Z,7.80
2024-01-29T18:02:59.223Z,6.73
2024-01-29T18:06:01.145Z,7.50
2024-01-29T18:09:03.162Z,6.60
2024-01-29T18:12:05.324Z,6.33
2024-01-29T18:15:08.484Z,7.47
2024-01-29T18:18:10.355Z,7.30
2024-01-29T18:21:12.273Z,8.50
2024-01-29T18:24:14.152Z,9.23
2024-01-29T18:27:16.063Z,9.27
2024-01-29T18:30:18.631Z,9.63
2024-01-29T18:33:20.646Z,9.20
2024-01-29T18:36:22.670Z,10.00
2024-01-29T18:39:24.486Z,9.67
2024-01-29T18:42:26.235Z,9.70
2024-01-29T18:45:28.058Z,8.97
2024-01-29T18:48:29.975Z,8.87
2024-01-29T18:51:32.876Z,9.93
2024-01-29T18:54:35.127Z,11.23
2024-01-29T18:57:37.108Z,14.23
2024-01-29T19:00:38.961Z,10.40
2024-01-29T19:03:40.969Z,11.10
2024-01-29T19:06:43.227Z,14.73
2024-01-29T19:09:45.240Z,13.80
2024-01-29T19:12:47.182Z,10.43
2024-01-29T19:15:49.891Z,9.70
2024-01-29T19:18:52.264Z,15.17
2024-01-29T19:21:55.916Z,23.53
2024-01-29T19:24:57.966Z,14.17
2024-01-29T19:28:00.019Z,11.97
2024-01-29T19:31:02.659Z,12.33
2024-01-29T19:34:05.837Z,15.70
2024-01-29T19:37:07.824Z,15.13
2024-01-29T19:40:13.641Z,14.13
2024-01-29T19:43:15.524Z,14.53
2024-01-29T19:46:17.509Z,13.27
2024-01-29T19:49:19.611Z,11.67
2024-01-29T19:52:21.494Z,13.40
2024-01-29T19:55:23.666Z,14.63
2024-01-29T19:58:25.529Z,14.40
2024-01-29T20:01:27.520Z,13.27
2024-01-29T20:04:29.575Z,23.60
2024-01-29T20:07:33.671Z,12.93
2024-01-29T20:10:35.638Z,15.37
2024-01-29T20:13:38.753Z,14.00
2024-01-29T20:16:40.614Z,13.03
2024-01-29T20:19:42.707Z,13.37
2024-01-29T20:22:44.678Z,12.33
2024-01-29T20:25:49.914Z,14.30
2024-01-29T20:28:53.533Z,18.97
2024-01-29T20:31:55.369Z,11.97
2024-01-29T20:34:57.347Z,12.30
2024-01-29T20:37:59.982Z,16.83
2024-01-29T20:41:05.245Z,14.90
2024-01-29T20:44:07.251Z,14.43
2024-01-29T20:47:09.026Z,13.87
2024-01-29T20:50:11.160Z,13.57
2024-01-29T20:53:13.317Z,14.57
2024-01-29T20:56:16.369Z,12.93
2024-01-29T20:59:18.156Z,13.37
2024-01-29T21:02:20.024Z,12.77
2024-01-29T21:05:22.878Z,11.10
2024-01-29T21:08:24.910Z,11.73
2024-01-29T21:11:28.381Z,11.10
2024-01-29T21:14:30.249Z,9.83
2024-01-29T21:17:32.349Z,9.77
2024-01-29T21:20:34.212Z,11.07
2024-01-29T21:23:36.835Z,10.40
2024-01-29T21:26:38.937Z,10.83
2024-01-29T21:29:40.787Z,11.00
2024-01-29T21:32:42.681Z,10.57
2024-01-29T21:35:44.612Z,10.27
2024-01-29T21:38:46.461Z,10.83
2024-01-29T21:41:49.959Z,10.97
2024-01-29T21:44:51.781Z,9.83
2024-01-29T21:47:53.678Z,11.07
2024-01-29T21:50:55.604Z,11.20
2024-01-29T21:53:57.381Z,12.13
2024-01-29T21:56:59.681Z,10.90
2024-01-29T22:00:01.867Z,11.70
2024-01-29T22:03:04.695Z,13.77
2024-01-29T22:06:06.610Z,11.43
2024-01-29T22:09:08.847Z,10.30
2024-01-29T22:12:10.640Z,9.13
2024-01-29T22:15:12.555Z,9.20
2024-01-29T22:18:14.431Z,9.90
2024-01-29T22:21:16.370Z,9.87
2024-01-29T22:24:18.339Z,10.30
2024-01-29T22:27:20.149Z,9.70
2024-01-29T22:30:22.039Z,11.23
2024-01-29T22:33:27.397Z,9.43
2024-01-29T22:36:29.294Z,10.23
2024-01-29T22:39:31.131Z,9.77
2024-01-29T22:42:32.973Z,10.17
2024-01-29T22:45:35.549Z,10.23
2024-01-29T22:48:37.510Z,9.43
2024-01-29T22:51:46.943Z,9.83
2024-01-29T22:54:48.966Z,10.13
2024-01-29T22:57:51.029Z,9.73
2024-01-29T23:00:54.538Z,10.70
2024-01-29T23:03:56.592Z,10.77
2024-01-29T23:06:58.510Z,9.40
2024-01-29T23:10:00.514Z,9.53
2024-01-29T23:13:02.497Z,11.53
2024-01-29T23:16:04.696Z,10.03
2024-01-29T23:19:06.894Z,10.23
2024-01-29T23:22:08.840Z,11.17
2024-01-29T23:25:10.766Z,8.73
2024-01-29T23:28:12.667Z,9.37
2024-01-29T23:31:14.535Z,8.27
2024-01-29T23:34:16.485Z,8.80
2024-01-29T23:37:25.359Z,8.17
2024-01-29T23:40:27.334Z,8.30
2024-01-29T23:43:29.254Z,8.10
2024-01-29T23:46:31.198Z,8.33
2024-01-29T23:49:33.154Z,8.30
2024-01-29T23:52:35.037Z,8.53
2024-01-29T23:55:36.876Z,8.13
2024-01-29T23:58:38.851Z,7.63
